createdAt,value
2022-09-14T00:02:08.487Z,11.30
2022-09-14T00:07:10.352Z,14.55
2022-09-14T00:12:12.165Z,18.35
2022-09-14T00:17:13.904Z,16.23
2022-09-14T00:22:15.619Z,12.30
2022-09-14T00:27:17.885Z,12.45
2022-09-14T00:32:19.713Z,12.10
2022-09-14T00:37:21.363Z,13.77
2022-09-14T00:42:23.085Z,12.15
2022-09-14T00:47:25.897Z,13.00
2022-09-14T00:52:30.616Z,14.43
2022-09-14T00:57:43.776Z,13.50
2022-09-14T01:02:45.686Z,12.35
2022-09-14T01:08:11.850Z,14.50
2022-09-14T01:13:37.059Z,14.32
2022-09-14T01:18:50.033Z,15.65
2022-09-14T01:24:08.553Z,12.90
2022-09-14T01:29:10.225Z,15.30
2022-09-14T01:34:21.022Z,16.40
2022-09-14T01:39:23.540Z,14.90
2022-09-14T01:44:30.893Z,16.50
2022-09-14T01:49:41.429Z,17.90
2022-09-14T01:54:49.726Z,16.08
2022-09-14T01:59:55.797Z,17.42
2022-09-14T02:05:06.689Z,13.90
2022-09-14T02:10:11.676Z,14.48
2022-09-14T02:15:15.209Z,16.08
2022-09-14T02:20:52.316Z,16.35
2022-09-14T02:25:54.246Z,14.48
2022-09-14T02:31:01.725Z,17.95
2022-09-14T02:36:13.543Z,19.45
2022-09-14T02:41:41.977Z,19.90
2022-09-14T02:46:54.150Z,19.88
2022-09-14T02:52:15.906Z,19.38
2022-09-14T02:57:17.616Z,19.08
2022-09-14T03:02:19.360Z,21.23
2022-09-14T03:07:21.044Z,21.92
2022-09-14T03:12:22.742Z,19.52
2022-09-14T03:17:24.383Z,16.77
2022-09-14T03:22:26.042Z,18.50
2022-09-14T03:27:27.821Z,16.77
2022-09-14T03:32:29.512Z,21.52
2022-09-14T03:37:31.221Z,19.25
2022-09-14T03:42:33.012Z,19.90
2022-09-14T03:47:34.613Z,18.65
2022-09-14T03:52:37.460Z,20.40
2022-09-14T03:57:39.168Z,22.25
2022-09-14T04:02:41.239Z,21.45
2022-09-14T04:07:42.997Z,21.20
2022-09-14T04:12:44.735Z,20.77
2022-09-14T04:17:47.577Z,20.83
2022-09-14T04:22:49.194Z,19.15
2022-09-14T04:28:04.139Z,15.40
2022-09-14T04:33:12.621Z,13.07
2022-09-14T04:38:14.323Z,13.25
2022-09-14T04:43:16.420Z,10.63
2022-09-14T04:48:18.661Z,10.45
2022-09-14T04:53:20.267Z,13.98
2022-09-14T04:58:21.862Z,14.30
2022-09-14T05:03:23.590Z,15.32
2022-09-14T05:08:25.240Z,13.02
2022-09-14T05:13:28.116Z,13.75
2022-09-14T05:18:29.777Z,13.55
2022-09-14T05:23:31.882Z,15.05
2022-09-14T05:28:34.720Z,16.23
2022-09-14T05:33:37.198Z,12.60
2022-09-14T05:38:39.896Z,13.52
2022-09-14T05:43:42.564Z,15.43
2022-09-14T05:48:44.275Z,13.38
2022-09-14T05:53:54.305Z,16.27
2022-09-14T05:58:56.158Z,13.68
2022-09-14T06:04:00.357Z,12.75
2022-09-14T06:09:02.361Z,12.85
2022-09-14T06:14:05.114Z,13.32
2022-09-14T06:19:06.797Z,12.15
2022-09-14T06:24:10.276Z,13.00
2022-09-14T06:29:11.958Z,12.27
2022-09-14T06:34:13.642Z,13.70
2022-09-14T06:39:15.398Z,15.55
2022-09-14T06:44:17.108Z,13.57
2022-09-14T06:49:22.878Z,13.63
2022-09-14T06:54:25.388Z,14.20
2022-09-14T06:59:27.073Z,11.68
2022-09-14T07:04:28.823Z,15.70
2022-09-14T07:09:31.720Z,11.80
2022-09-14T07:14:33.485Z,11.32
2022-09-14T07:19:35.220Z,10.80
2022-09-14T07:24:36.829Z,7.97
2022-09-14T07:29:38.465Z,9.95
2022-09-14T07:34:40.161Z,10.23
2022-09-14T07:39:42.091Z,16.45
2022-09-14T07:44:43.736Z,13.30
2022-09-14T07:49:45.472Z,9.30
2022-09-14T07:54:47.132Z,10.27
2022-09-14T07:59:48.817Z,11.93
2022-09-14T08:04:52.884Z,10.18
2022-09-14T08:09:54.591Z,7.90
2022-09-14T08:14:56.279Z,7.28
2022-09-14T08:19:57.898Z,7.30
2022-09-14T08:24:59.554Z,6.88
2022-09-14T08:30:01.318Z,7.32
2022-09-14T08:35:03.069Z,8.27
2022-09-14T08:40:05.449Z,8.38
2022-09-14T08:45:09.742Z,8.68
2022-09-14T08:55:41.397Z,6.22
2022-09-14T09:00:51.119Z,6.70
2022-09-14T09:06:18.049Z,6.28
2022-09-14T09:11:22.706Z,6.00
2022-09-14T09:16:26.031Z,5.50
2022-09-14T09:21:35.449Z,5.20
2022-09-14T09:26:38.991Z,5.55
2022-09-14T09:31:48.755Z,4.65
2022-09-14T09:36:50.702Z,6.40
2022-09-14T09:42:07.428Z,5.22
2022-09-14T09:47:09.195Z,5.70
2022-09-14T09:52:16.768Z,4.85
2022-09-14T09:57:31.300Z,5.60
2022-09-14T10:07:39.203Z,6.70
2022-09-14T10:12:49.301Z,5.50
2022-09-14T10:17:55.355Z,4.63
2022-09-14T10:23:17.641Z,5.50
2022-09-14T10:28:24.117Z,5.00
2022-09-14T10:33:25.924Z,5.30
2022-09-14T10:38:52.875Z,6.13
2022-09-14T10:44:05.369Z,5.38
2022-09-14T10:49:24.567Z,10.10
2022-09-14T10:54:32.541Z,16.10
2022-09-14T10:59:43.380Z,16.85
2022-09-14T11:05:07.113Z,18.92
2022-09-14T11:10:30.057Z,19.75
2022-09-14T11:16:06.070Z,22.27
2022-09-14T11:21:39.347Z,23.95
2022-09-14T11:26:45.245Z,28.88
2022-09-14T11:32:19.739Z,28.92
2022-09-14T11:37:41.559Z,27.02
2022-09-14T11:42:46.144Z,28.90
2022-09-14T11:48:01.312Z,29.52
2022-09-14T11:53:15.510Z,29.15
2022-09-14T11:58:23.693Z,30.38
2022-09-14T12:03:52.141Z,31.33
2022-09-14T12:08:54.110Z,28.15
2022-09-14T12:14:19.314Z,27.75
2022-09-14T12:38:38.183Z,21.08
2022-09-14T13:28:32.059Z,41.00
2022-09-14T13:33:33.826Z,43.08
2022-09-14T13:38:37.985Z,35.70
2022-09-14T13:43:43.636Z,35.22
2022-09-14T13:48:45.599Z,30.52
2022-09-14T13:54:36.587Z,32.00
2022-09-14T14:00:14.231Z,33.63
2022-09-14T14:05:41.410Z,29.67
2022-09-14T14:10:47.436Z,28.60
2022-09-14T14:15:49.077Z,31.52
2022-09-14T14:20:50.805Z,30.00
2022-09-14T14:26:08.759Z,31.30
2022-09-14T14:31:18.411Z,30.75
2022-09-14T14:36:20.149Z,35.55
2022-09-14T14:41:22.877Z,42.47
2022-09-14T14:46:32.013Z,43.38
2022-09-14T14:51:33.804Z,44.90
2022-09-14T14:56:38.707Z,39.17
2022-09-14T15:01:40.426Z,43.75
2022-09-14T15:06:42.312Z,33.88
2022-09-14T15:11:44.314Z,24.90
2022-09-14T15:16:47.949Z,27.95
2022-09-14T15:21:49.722Z,32.73
2022-09-14T15:26:51.638Z,27.23
2022-09-14T15:31:53.418Z,28.40
2022-09-14T15:36:57.360Z,27.13
2022-09-14T15:42:03.245Z,27.17
2022-09-14T15:47:05.174Z,24.63
2022-09-14T15:52:08.178Z,27.05
2022-09-14T15:57:11.928Z,24.60
2022-09-14T16:02:13.719Z,25.37
2022-09-14T16:07:15.597Z,22.05
2022-09-14T16:12:17.243Z,22.15
2022-09-14T16:17:18.952Z,25.17
2022-09-14T16:22:21.743Z,23.88
2022-09-14T16:27:23.541Z,22.20
2022-09-14T16:32:25.392Z,25.80
2022-09-14T16:37:27.104Z,21.92
2022-09-14T16:42:28.821Z,23.65
2022-09-14T16:47:32.184Z,22.88
2022-09-14T16:52:33.955Z,25.35
2022-09-14T16:57:35.792Z,26.75
2022-09-14T17:02:59.503Z,26.33
2022-09-14T17:08:01.446Z,28.63
2022-09-14T17:13:03.171Z,21.85
2022-09-14T17:18:05.418Z,22.80
2022-09-14T17:23:07.070Z,26.20
2022-09-14T17:28:08.675Z,25.75
2022-09-14T17:33:10.422Z,26.17
2022-09-14T17:38:12.153Z,28.95
2022-09-14T17:43:14.544Z,28.23
2022-09-14T17:48:16.323Z,29.23
2022-09-14T17:53:18.186Z,35.78
2022-09-14T17:58:20.004Z,39.40
2022-09-14T18:03:21.780Z,42.10
2022-09-14T18:08:23.488Z,44.75
2022-09-14T18:13:25.228Z,42.67
2022-09-14T18:18:27.297Z,46.47
2022-09-14T18:23:29.409Z,43.95
2022-09-14T18:28:31.610Z,42.47
2022-09-14T18:33:36.548Z,44.00
2022-09-14T18:38:38.398Z,41.83
2022-09-14T18:43:47.027Z,44.15
2022-09-14T18:48:51.340Z,43.38
2022-09-14T18:54:03.774Z,44.15
2022-09-14T18:59:11.498Z,46.33
2022-09-14T19:04:15.828Z,45.88
2022-09-14T19:14:20.653Z,42.60
2022-09-14T19:19:23.176Z,48.47
2022-09-14T19:24:30.629Z,44.42
2022-09-14T19:29:32.853Z,45.60
2022-09-14T19:34:34.670Z,48.03
2022-09-14T19:39:36.681Z,46.22
2022-09-14T19:44:41.624Z,47.63
2022-09-14T19:49:43.770Z,47.60
2022-09-14T19:54:45.663Z,47.50
2022-09-14T19:59:47.670Z,49.95
2022-09-14T20:05:03.886Z,51.63
2022-09-14T20:10:06.099Z,48.22
2022-09-14T20:15:08.191Z,48.70
2022-09-14T20:20:11.395Z,47.22
2022-09-14T20:25:13.574Z,50.72
2022-09-14T20:30:15.278Z,50.63
2022-09-14T20:35:17.050Z,47.28
2022-09-14T20:40:18.855Z,50.55
2022-09-14T20:45:20.625Z,49.75
2022-09-14T20:50:22.296Z,50.70
2022-09-14T20:55:24.057Z,48.35
2022-09-14T21:00:25.770Z,45.17
2022-09-14T21:05:27.966Z,46.33
2022-09-14T21:10:30.088Z,50.40
2022-09-14T21:15:33.069Z,46.38
2022-09-14T21:20:38.756Z,46.88
2022-09-14T21:25:40.608Z,46.53
2022-09-14T21:30:42.339Z,49.83
2022-09-14T21:35:44.104Z,45.70
2022-09-14T21:40:45.759Z,48.83
2022-09-14T21:45:47.409Z,45.75
2022-09-14T21:50:49.099Z,45.00
2022-09-14T21:55:50.832Z,47.78
2022-09-14T22:00:57.721Z,50.25
2022-09-14T22:06:05.980Z,52.03
2022-09-14T22:11:20.055Z,50.75
2022-09-14T22:16:25.569Z,47.85
2022-09-14T22:21:28.876Z,48.47
2022-09-14T22:26:32.040Z,42.03
2022-09-14T22:31:33.841Z,44.72
2022-09-14T22:36:35.850Z,44.55
2022-09-14T22:41:38.025Z,44.67
2022-09-14T22:46:39.717Z,49.40
2022-09-14T22:51:41.588Z,44.25
2022-09-14T22:56:43.313Z,46.17
2022-09-14T23:01:45.104Z,45.40
2022-09-14T23:06:48.124Z,44.63
2022-09-14T23:11:49.803Z,45.05
2022-09-14T23:16:51.539Z,44.05
2022-09-14T23:21:53.176Z,49.47
2022-09-14T23:26:54.881Z,43.10
2022-09-14T23:31:56.562Z,48.13
2022-09-14T23:36:58.310Z,50.08
2022-09-14T23:42:00.083Z,48.13
2022-09-14T23:47:01.986Z,48.22
2022-09-14T23:52:03.731Z,52.88
2022-09-14T23:57:05.500Z,53.58
